Harpursville, NY (13787)

7:28 AM EST on December 07, 2016 (GMT -0500)
East Afton | | Change Station

Elev 1801 ft 42.21 °N, 75.42 °W | Updated 12 minutes ago

Overcast
Overcast
32.4 °F
Feels Like 32 °F
N
0.0
Wind Variable Wind from North

Today
High -- | Low -- °F
--% Chance of Precip.
Yesterday
High -- | Low -- °F
Precip. -- in
Pressure 29.88 in
Visibility 9.0 miles
Clouds Mostly Cloudy 400 ft
Overcast 1900 ft
Windchill 32 °F
Dew Point 31 °F
Humidity 96%
Rainfall 0.00 in
Snow Depth Not available.
7:17 AM 4:30 PM
First Quarter, 52% visible
SPECI KBGM 071219Z 20006KT 9SM BKN004 OVC019 00/00 A2988 RMK AO2 CIG 002V008 T00000000
Pressure 29.88 in
Visibility 9.0 miles
Clouds Mostly Cloudy 400 ft
Overcast 1900 ft
Windchill 32 °F
Dew Point 31 °F
Humidity 96%
Rainfall 0.00 in
Snow Depth Not available.
7:17 AM 4:30 PM
First Quarter, 52% visible
SPECI KBGM 071219Z 20006KT 9SM BKN004 OVC019 00/00 A2988 RMK AO2 CIG 002V008 T00000000

10-Day Weather Forecast

Almanac

Astronomy

Dec. 07, 2016 Rise Set
Actual Time
Civil Twilight
Nautical Twilight
Astronomical Twilight
Moon
Length of Visible Light
Length of Day
Tomorrow will be .
, % of the Moon is Illuminated

Today's Extremes

State Highs State Lows

Community

WunderPhotos

Upload Photos

1,956,111 photos uploaded!

WunderBlog® & News

Nearby

Air Quality

  Air Quality AQ Index Pollutant
Not available.

Snow Depth

Station Depth Elevation

Earthquake Activity

City Distance Mag. Time & Date
Minimum magnitude displayed is 2.5.

Coastal Water Temperatures

Place Temperature

Stations

Nearby Weather Stations

Station Location Temp. Windchill Dew Point Humidity Wind Precip. Elev Updated Type
                   

Watches & Warnings

There are currently no watches in effect.